createdAt,value
2018-12-08T00:01:22.140Z,99.90
2018-12-08T00:03:58.605Z,99.90
2018-12-08T00:06:34.596Z,99.90
2018-12-08T00:09:10.510Z,99.90
2018-12-08T00:11:46.589Z,99.90
2018-12-08T00:14:22.606Z,99.90
2018-12-08T00:16:58.936Z,99.90
2018-12-08T00:19:35.117Z,99.90
2018-12-08T00:22:11.041Z,99.90
2018-12-08T00:24:46.936Z,99.90
2018-12-08T00:27:24.642Z,99.90
2018-12-08T00:30:00.838Z,99.90
2018-12-08T00:32:36.846Z,99.90
2018-12-08T00:35:12.742Z,99.90
2018-12-08T00:37:48.889Z,99.90
2018-12-08T00:40:25.305Z,99.90
2018-12-08T00:43:00.965Z,99.90
2018-12-08T00:45:36.866Z,99.90
2018-12-08T00:48:12.884Z,99.90
2018-12-08T00:50:48.643Z,99.90
2018-12-08T00:53:24.716Z,99.90
2018-12-08T00:56:00.603Z,99.90
2018-12-08T00:58:37.456Z,99.90
2018-12-08T01:01:14.196Z,99.90
2018-12-08T01:03:52.181Z,99.90
2018-12-08T01:06:28.235Z,99.90
2018-12-08T01:09:09.131Z,99.90
2018-12-08T01:11:45.423Z,99.90
2018-12-08T01:14:21.311Z,99.90
2018-12-08T01:16:57.298Z,99.90
2018-12-08T01:19:33.046Z,99.90
2018-12-08T01:22:08.723Z,99.90
2018-12-08T01:24:44.561Z,99.90
2018-12-08T01:27:20.241Z,99.90
2018-12-08T01:29:56.225Z,99.90
2018-12-08T01:32:31.963Z,99.90
2018-12-08T01:35:07.558Z,99.90
2018-12-08T01:37:43.784Z,99.90
2018-12-08T01:40:21.336Z,99.90
2018-12-08T01:42:57.376Z,99.90
2018-12-08T01:45:33.489Z,99.90
2018-12-08T01:48:09.090Z,99.90
2018-12-08T01:50:44.866Z,99.90
2018-12-08T01:53:20.778Z,99.90
2018-12-08T01:55:56.897Z,99.90
2018-12-08T01:58:32.693Z,99.90
2018-12-08T02:01:08.445Z,99.90
2018-12-08T02:03:44.370Z,99.90
2018-12-08T02:06:20.095Z,99.90
2018-12-08T02:08:55.814Z,99.90
2018-12-08T02:11:33.682Z,99.90
2018-12-08T02:14:09.968Z,99.90
2018-12-08T02:16:46.025Z,99.90
2018-12-08T02:19:23.729Z,99.90
2018-12-08T02:21:59.897Z,99.90
2018-12-08T02:24:35.803Z,99.90
2018-12-08T02:27:12.460Z,99.90
2018-12-08T02:29:48.663Z,99.90
2018-12-08T02:32:24.401Z,99.90
2018-12-08T02:35:02.115Z,99.90
2018-12-08T02:37:37.918Z,99.90
2018-12-08T02:40:13.919Z,99.90
2018-12-08T02:42:49.573Z,99.90
2018-12-08T02:45:25.335Z,99.90
2018-12-08T02:48:01.290Z,99.90
2018-12-08T02:50:37.139Z,99.90
2018-12-08T02:53:13.251Z,99.90
2018-12-08T02:55:49.845Z,99.90
2018-12-08T02:58:26.942Z,99.90
2018-12-08T03:01:03.460Z,99.90
2018-12-08T03:03:40.009Z,99.90
2018-12-08T03:06:15.972Z,99.90
2018-12-08T03:08:51.933Z,99.90
2018-12-08T03:11:27.964Z,99.90
2018-12-08T03:14:03.720Z,99.90
2018-12-08T03:16:39.711Z,99.90
2018-12-08T03:19:15.751Z,99.90
2018-12-08T03:21:52.403Z,99.90
2018-12-08T03:24:28.502Z,99.90
2018-12-08T03:27:05.060Z,99.90
2018-12-08T03:29:41.786Z,99.90
2018-12-08T03:32:18.116Z,99.90
2018-12-08T03:34:53.880Z,99.90
2018-12-08T03:37:29.597Z,99.90
2018-12-08T03:40:05.490Z,99.90
2018-12-08T03:42:41.153Z,99.90
2018-12-08T03:45:17.251Z,99.90
2018-12-08T03:47:53.045Z,99.90
2018-12-08T03:50:28.863Z,99.90
2018-12-08T03:53:04.845Z,99.90
2018-12-08T03:55:40.557Z,99.90
2018-12-08T03:58:16.490Z,99.90
2018-12-08T04:00:52.302Z,99.90
2018-12-08T04:03:28.150Z,99.90
2018-12-08T04:06:03.947Z,99.90
2018-12-08T04:08:39.848Z,99.90
2018-12-08T04:11:15.802Z,99.90
2018-12-08T04:13:51.680Z,99.90
2018-12-08T04:16:27.452Z,99.90
2018-12-08T04:19:03.228Z,99.90
2018-12-08T04:21:39.034Z,99.90
2018-12-08T04:24:14.929Z,99.90
2018-12-08T04:26:50.862Z,99.60
2018-12-08T04:29:26.909Z,99.60
2018-12-08T04:32:05.007Z,99.90
2018-12-08T04:34:40.798Z,99.90
2018-12-08T04:37:17.712Z,99.90
2018-12-08T04:39:53.713Z,99.90
2018-12-08T04:42:29.313Z,99.20
2018-12-08T04:45:05.821Z,99.00
2018-12-08T04:47:42.321Z,99.00
2018-12-08T04:50:18.107Z,98.60
2018-12-08T04:52:54.050Z,98.40
2018-12-08T04:55:29.970Z,97.90
2018-12-08T04:58:05.862Z,98.20
2018-12-08T05:00:41.806Z,98.30
2018-12-08T05:03:17.862Z,98.50
2018-12-08T05:05:53.905Z,98.10
2018-12-08T05:08:29.546Z,97.60
2018-12-08T05:11:05.443Z,98.10
2018-12-08T05:13:41.510Z,97.80
2018-12-08T05:16:17.745Z,98.00
2018-12-08T05:18:54.196Z,98.50
2018-12-08T05:21:29.944Z,98.40
2018-12-08T05:24:05.917Z,98.80
2018-12-08T05:26:41.825Z,99.10
2018-12-08T05:29:17.792Z,98.30
2018-12-08T05:31:53.902Z,97.90
2018-12-08T05:34:29.827Z,97.90
2018-12-08T05:37:05.630Z,97.70
2018-12-08T05:39:41.475Z,97.30
2018-12-08T05:42:16.993Z,97.30
2018-12-08T05:44:52.764Z,97.30
2018-12-08T05:47:29.766Z,97.30
2018-12-08T05:50:07.048Z,97.30
2018-12-08T05:52:42.621Z,97.20
2018-12-08T05:55:18.414Z,97.00
2018-12-08T05:57:54.070Z,97.30
2018-12-08T06:00:30.451Z,97.50
2018-12-08T06:03:06.904Z,97.60
2018-12-08T06:05:42.590Z,97.30
2018-12-08T06:08:18.461Z,98.10
2018-12-08T06:11:10.431Z,98.50
2018-12-08T06:13:51.126Z,99.00
2018-12-08T06:16:27.166Z,98.90
2018-12-08T06:19:03.197Z,99.00
2018-12-08T06:21:40.375Z,98.90
2018-12-08T06:24:16.576Z,99.30
2018-12-08T06:27:30.617Z,98.70
2018-12-08T06:30:07.923Z,98.30
2018-12-08T06:32:43.546Z,98.30
2018-12-08T06:35:19.376Z,98.20
2018-12-08T06:37:56.461Z,97.70
2018-12-08T06:40:32.869Z,97.60
2018-12-08T06:43:09.210Z,97.30
2018-12-08T06:45:45.146Z,97.30
2018-12-08T06:48:20.999Z,97.10
2018-12-08T06:50:56.794Z,96.80
2018-12-08T06:53:32.524Z,96.50
2018-12-08T06:56:08.247Z,96.30
2018-12-08T06:58:43.863Z,96.20
2018-12-08T07:01:19.824Z,96.10
2018-12-08T07:03:55.811Z,95.60
2018-12-08T07:06:33.362Z,95.70
2018-12-08T07:09:09.514Z,96.10
2018-12-08T07:11:46.357Z,96.10
2018-12-08T07:14:23.478Z,96.20
2018-12-08T07:16:59.540Z,96.00
2018-12-08T07:19:35.338Z,96.00
2018-12-08T07:22:11.343Z,96.00
2018-12-08T07:24:47.321Z,96.30
2018-12-08T07:27:23.447Z,96.20
2018-12-08T07:29:59.889Z,95.90
2018-12-08T07:32:38.962Z,95.70
2018-12-08T07:35:14.985Z,95.70
2018-12-08T07:37:52.237Z,95.30
2018-12-08T07:40:28.286Z,95.20
2018-12-08T07:43:04.011Z,95.60
2018-12-08T07:45:39.660Z,95.30
2018-12-08T07:48:15.467Z,95.20
2018-12-08T07:50:51.227Z,95.00
2018-12-08T07:53:27.031Z,94.50
2018-12-08T07:56:04.076Z,94.40
2018-12-08T07:58:41.271Z,94.50
2018-12-08T08:01:17.954Z,94.20
2018-12-08T08:03:54.898Z,93.90
2018-12-08T08:06:31.555Z,94.00
2018-12-08T08:09:08.691Z,94.50
2018-12-08T08:11:45.249Z,94.30
2018-12-08T08:14:21.546Z,93.90
2018-12-08T08:16:59.616Z,93.60
2018-12-08T08:19:36.017Z,93.50
2018-12-08T08:22:12.143Z,93.70
2018-12-08T08:24:48.674Z,93.30
2018-12-08T08:27:25.104Z,93.20
2018-12-08T08:30:02.029Z,93.20
2018-12-08T08:32:38.135Z,92.90
2018-12-08T08:35:13.843Z,93.00
2018-12-08T08:37:49.739Z,92.90
2018-12-08T08:40:27.268Z,93.20
2018-12-08T08:43:03.142Z,92.90
2018-12-08T08:45:38.926Z,93.00
2018-12-08T08:48:14.815Z,92.80
2018-12-08T08:50:51.845Z,92.30
2018-12-08T08:53:32.197Z,92.70
2018-12-08T08:56:08.768Z,92.90
2018-12-08T08:58:46.786Z,92.30
2018-12-08T09:01:27.389Z,92.60
2018-12-08T09:04:05.732Z,92.50
2018-12-08T09:06:42.920Z,92.80
2018-12-08T09:09:20.599Z,92.20
2018-12-08T09:11:58.709Z,92.30
2018-12-08T09:14:37.382Z,91.80
2018-12-08T09:17:14.421Z,91.40
2018-12-08T09:19:54.471Z,91.60
2018-12-08T09:22:32.350Z,91.20
2018-12-08T09:25:11.773Z,91.50
2018-12-08T09:27:49.990Z,91.50
2018-12-08T09:30:26.499Z,91.40
2018-12-08T09:33:03.496Z,91.40
2018-12-08T09:35:40.916Z,91.30
2018-12-08T09:38:18.919Z,92.00
2018-12-08T09:40:58.915Z,91.60
2018-12-08T09:43:38.492Z,91.40
2018-12-08T09:46:15.992Z,91.20
2018-12-08T09:48:52.678Z,91.00
2018-12-08T09:51:32.104Z,90.90
2018-12-08T09:54:10.816Z,90.70
2018-12-08T09:56:50.672Z,90.70
2018-12-08T09:59:29.317Z,90.10
2018-12-08T10:02:06.353Z,89.30
2018-12-08T10:04:44.636Z,89.80
2018-12-08T10:07:22.770Z,89.40
2018-12-08T10:10:01.607Z,90.00
2018-12-08T10:12:40.482Z,90.10
2018-12-08T10:15:17.772Z,89.90
2018-12-08T10:17:58.892Z,90.00
2018-12-08T10:20:36.085Z,90.10
2018-12-08T10:23:14.421Z,90.20
2018-12-08T10:25:54.137Z,89.90
2018-12-08T10:28:33.779Z,90.00
2018-12-08T10:31:11.320Z,90.10
2018-12-08T10:33:47.482Z,90.00
2018-12-08T10:36:23.730Z,90.00
2018-12-08T10:39:00.923Z,88.80
2018-12-08T10:41:37.929Z,88.00
2018-12-08T10:44:14.004Z,87.40
2018-12-08T10:46:51.498Z,85.90
2018-12-08T10:49:28.546Z,85.20
2018-12-08T10:52:04.998Z,85.20
2018-12-08T10:54:43.528Z,84.70
2018-12-08T10:57:20.464Z,85.30
2018-12-08T10:59:56.520Z,84.30
2018-12-08T11:02:40.128Z,85.00
2018-12-08T11:05:16.442Z,83.50
2018-12-08T11:07:53.007Z,81.50
2018-12-08T11:10:29.632Z,81.70
2018-12-08T11:13:06.260Z,81.70
2018-12-08T11:15:43.164Z,81.90
2018-12-08T11:18:19.140Z,82.60
2018-12-08T11:20:55.779Z,79.60
2018-12-08T11:23:32.017Z,78.80
2018-12-08T11:26:09.610Z,79.60
2018-12-08T11:28:46.127Z,79.40
2018-12-08T11:31:22.724Z,77.50
2018-12-08T11:34:00.442Z,75.70
2018-12-08T11:36:37.009Z,76.30
2018-12-08T11:39:13.897Z,73.80
2018-12-08T11:41:51.589Z,75.40
2018-12-08T11:44:27.789Z,74.40
2018-12-08T11:47:04.504Z,75.80
2018-12-08T11:49:43.050Z,73.60
2018-12-08T11:52:19.705Z,73.80
2018-12-08T11:54:56.148Z,74.20
2018-12-08T11:57:32.774Z,74.00
2018-12-08T12:00:09.509Z,74.20
2018-12-08T12:02:45.840Z,74.90
2018-12-08T12:05:22.564Z,74.70
2018-12-08T12:07:58.503Z,74.10
2018-12-08T12:10:34.593Z,74.30
2018-12-08T12:13:10.979Z,74.00
2018-12-08T12:15:47.527Z,74.80
2018-12-08T12:18:23.883Z,73.90
2018-12-08T12:21:00.432Z,74.80
2018-12-08T12:23:36.549Z,74.70
2018-12-08T12:26:13.694Z,75.50
2018-12-08T12:28:51.268Z,78.20
2018-12-08T12:31:28.536Z,77.50
2018-12-08T12:34:04.877Z,78.10
2018-12-08T12:36:41.590Z,77.80
2018-12-08T12:39:17.599Z,78.00
2018-12-08T12:41:55.515Z,79.80
2018-12-08T12:44:32.442Z,79.90
2018-12-08T12:47:08.653Z,81.40
2018-12-08T12:49:45.161Z,80.70
2018-12-08T12:52:21.528Z,81.70
2018-12-08T12:54:57.611Z,81.70
2018-12-08T12:57:33.463Z,82.80
2018-12-08T13:00:12.351Z,84.20
2018-12-08T13:02:48.646Z,84.00
2018-12-08T13:05:24.871Z,83.80
2018-12-08T13:08:00.674Z,83.20
2018-12-08T13:10:36.803Z,83.50
2018-12-08T13:13:13.287Z,83.40
2018-12-08T13:15:50.166Z,83.90
2018-12-08T13:18:27.858Z,83.40
2018-12-08T13:21:04.035Z,83.50
2018-12-08T13:23:42.646Z,84.00
2018-12-08T13:26:19.512Z,83.90
2018-12-08T13:28:55.847Z,84.40
2018-12-08T13:31:32.643Z,83.90
2018-12-08T13:34:23.363Z,84.50
2018-12-08T13:37:00.853Z,84.60
2018-12-08T13:39:37.470Z,84.40
2018-12-08T13:42:14.561Z,84.50
2018-12-08T13:45:01.919Z,85.60
2018-12-08T13:47:38.619Z,85.30
2018-12-08T13:50:15.044Z,85.90
2018-12-08T13:52:51.464Z,86.10
2018-12-08T13:55:27.952Z,86.30
2018-12-08T13:58:03.682Z,86.10
2018-12-08T14:00:39.984Z,86.30
2018-12-08T14:03:16.320Z,85.70
2018-12-08T14:05:52.292Z,84.70
2018-12-08T14:08:28.733Z,83.60
2018-12-08T14:11:05.114Z,83.50
2018-12-08T14:13:42.595Z,81.40
2018-12-08T14:16:22.583Z,80.60
2018-12-08T14:18:59.436Z,81.30
2018-12-08T14:21:36.167Z,82.50
2018-12-08T14:24:12.189Z,84.10
2018-12-08T14:26:48.524Z,84.60
2018-12-08T14:29:25.026Z,85.60
2018-12-08T14:32:01.665Z,86.40
2018-12-08T14:34:38.212Z,87.40
2018-12-08T14:37:13.862Z,87.60
2018-12-08T14:39:50.873Z,88.40
2018-12-08T14:57:34.420Z,88.90
2018-12-08T15:00:12.648Z,90.50
2018-12-08T15:02:48.926Z,90.70
2018-12-08T15:05:25.398Z,90.70
2018-12-08T15:08:01.314Z,90.60
2018-12-08T15:10:37.481Z,90.90
2018-12-08T15:13:13.209Z,91.10
2018-12-08T15:16:04.080Z,91.30
2018-12-08T15:18:40.462Z,91.40
2018-12-08T15:21:16.524Z,91.60
2018-12-08T15:23:52.841Z,91.80
2018-12-08T15:26:28.802Z,92.00
2018-12-08T15:29:05.877Z,92.20
2018-12-08T15:31:41.765Z,92.20
2018-12-08T15:34:17.742Z,92.40
2018-12-08T15:36:54.393Z,92.30
2018-12-08T15:39:30.813Z,92.60
2018-12-08T15:42:06.869Z,92.70
2018-12-08T15:44:44.121Z,92.90
2018-12-08T15:47:21.283Z,92.80
2018-12-08T15:49:58.132Z,93.00
2018-12-08T15:52:34.941Z,93.10
2018-12-08T15:57:50.165Z,93.60
2018-12-08T16:00:27.341Z,93.70
2018-12-08T16:03:03.548Z,93.80
2018-12-08T16:05:39.274Z,94.00
2018-12-08T16:08:15.630Z,94.20
2018-12-08T16:10:52.139Z,94.20
2018-12-08T16:13:29.423Z,94.30
2018-12-08T16:16:06.552Z,94.40
2018-12-08T16:18:43.523Z,94.40
2018-12-08T16:21:19.982Z,94.30
2018-12-08T16:23:56.630Z,94.40
2018-12-08T16:26:33.266Z,94.30
2018-12-08T16:29:10.956Z,94.20
2018-12-08T16:31:47.189Z,94.80
2018-12-08T16:34:23.677Z,94.40
2018-12-08T16:36:59.508Z,94.40
2018-12-08T16:39:35.628Z,94.50
2018-12-08T16:42:11.375Z,94.60
2018-12-08T16:44:47.938Z,94.70
2018-12-08T16:47:24.741Z,94.90
2018-12-08T16:50:01.086Z,95.10
2018-12-08T16:52:37.803Z,95.40
2018-12-08T18:08:48.682Z,95.80
2018-12-08T18:11:25.319Z,96.10
2018-12-08T18:14:01.383Z,96.30
2018-12-08T18:16:38.232Z,96.00
2018-12-08T18:19:14.084Z,96.10
2018-12-08T18:21:49.774Z,96.10
2018-12-08T18:24:25.539Z,95.80
2018-12-08T18:27:01.471Z,95.70
2018-12-08T18:29:37.419Z,95.90
2018-12-08T18:32:13.224Z,95.90
2018-12-08T18:34:48.970Z,96.00
2018-12-08T18:37:24.731Z,96.10
2018-12-08T18:40:00.738Z,96.30
2018-12-08T18:42:37.444Z,96.40
2018-12-08T18:45:13.429Z,96.40
2018-12-08T18:47:49.031Z,96.90
2018-12-08T18:50:24.852Z,97.10
2018-12-08T18:53:15.390Z,97.00
2018-12-08T18:55:51.893Z,96.90
2018-12-08T18:58:27.922Z,97.20
2018-12-08T19:01:03.935Z,97.20
2018-12-08T19:03:39.851Z,96.60
2018-12-08T19:06:15.858Z,96.70
2018-12-08T19:08:52.491Z,96.80
2018-12-08T19:11:29.068Z,96.70
2018-12-08T19:14:05.443Z,97.10
2018-12-08T19:16:42.217Z,97.40
2018-12-08T19:19:19.018Z,97.60
2018-12-08T19:21:54.924Z,97.90
2018-12-08T19:24:30.696Z,97.80
2018-12-08T19:27:06.376Z,97.90
2018-12-08T19:29:42.194Z,97.80
2018-12-08T19:32:18.210Z,97.70
2018-12-08T19:34:54.757Z,97.40
2018-12-08T19:37:31.104Z,97.20
2018-12-08T19:40:08.146Z,97.10
2018-12-08T19:42:44.705Z,96.90
2018-12-08T19:45:20.519Z,96.80
2018-12-08T19:47:56.210Z,96.70
2018-12-08T19:50:32.535Z,96.60
2018-12-08T19:53:08.341Z,96.70
2018-12-08T19:55:44.246Z,96.40
2018-12-08T19:58:20.170Z,96.30
2018-12-08T20:00:56.789Z,96.10
2018-12-08T20:03:32.597Z,96.10
2018-12-08T20:06:08.907Z,96.10
2018-12-08T20:08:45.591Z,96.10
2018-12-08T20:11:21.237Z,96.10
2018-12-08T20:13:56.984Z,96.10
2018-12-08T20:16:32.998Z,96.20
2018-12-08T20:19:09.100Z,96.30
2018-12-08T20:21:44.757Z,96.30
2018-12-08T20:24:20.769Z,96.30
2018-12-08T20:26:57.410Z,96.10
2018-12-08T20:29:33.303Z,96.10
2018-12-08T20:32:10.410Z,96.10
2018-12-08T20:34:47.195Z,96.10
2018-12-08T20:37:23.119Z,95.90
2018-12-08T20:39:59.403Z,95.80
2018-12-08T20:42:35.464Z,95.80
2018-12-08T20:45:11.764Z,95.70
2018-12-08T20:47:47.448Z,95.90
2018-12-08T20:50:24.169Z,95.80
2018-12-08T20:52:59.996Z,95.70
2018-12-08T20:55:35.858Z,95.90
2018-12-08T20:58:11.954Z,95.90
2018-12-08T21:00:48.562Z,96.00
2018-12-08T21:03:25.380Z,96.00
2018-12-08T21:06:01.551Z,95.90
2018-12-08T21:08:38.060Z,96.10
2018-12-08T21:11:13.937Z,95.90
2018-12-08T21:13:50.134Z,96.10
2018-12-08T21:19:06.551Z,96.20
2018-12-08T21:21:42.394Z,96.20
2018-12-08T21:24:18.346Z,96.50
2018-12-08T21:26:55.132Z,96.40
2018-12-08T21:29:30.754Z,96.40
2018-12-08T21:32:07.043Z,96.50
2018-12-08T21:34:43.595Z,96.80
2018-12-08T21:37:19.373Z,97.20
2018-12-08T21:39:55.952Z,97.50
2018-12-08T21:42:31.855Z,97.90
2018-12-08T21:45:09.134Z,98.00
2018-12-08T21:47:45.430Z,98.40
2018-12-08T21:50:21.491Z,98.10
2018-12-08T21:52:57.220Z,98.40
2018-12-08T21:55:33.985Z,98.40
2018-12-08T21:58:10.984Z,98.50
2018-12-08T22:00:47.588Z,98.70
2018-12-08T22:03:23.805Z,98.80
2018-12-08T22:06:00.717Z,99.40
2018-12-08T22:08:37.415Z,99.70
2018-12-08T22:11:13.367Z,99.70
2018-12-08T22:13:52.299Z,99.80
2018-12-08T22:16:29.238Z,99.80
2018-12-08T22:19:06.032Z,99.90
2018-12-08T22:21:42.495Z,99.90
2018-12-08T22:24:19.962Z,99.90
2018-12-08T22:26:56.643Z,99.90
2018-12-08T22:29:33.254Z,99.90
2018-12-08T22:32:09.173Z,99.90
2018-12-08T22:34:45.287Z,99.90
2018-12-08T22:37:21.977Z,99.90
2018-12-08T22:39:58.121Z,99.90
2018-12-08T22:42:33.961Z,99.90
2018-12-08T22:45:09.799Z,99.90
2018-12-08T22:47:45.737Z,99.90
2018-12-08T22:50:22.397Z,99.90
2018-12-08T22:52:58.702Z,99.90
2018-12-08T22:55:34.307Z,99.90
2018-12-08T22:58:10.744Z,99.90
2018-12-08T23:00:49.013Z,99.90
2018-12-08T23:03:27.130Z,99.90
2018-12-08T23:06:02.901Z,99.90
2018-12-08T23:08:39.025Z,99.90
2018-12-08T23:11:14.670Z,99.90
2018-12-08T23:13:50.665Z,99.90
2018-12-08T23:16:26.687Z,99.90
2018-12-08T23:19:03.505Z,99.90
2018-12-08T23:21:40.050Z,99.90
2018-12-08T23:24:16.194Z,99.90
2018-12-08T23:26:52.137Z,99.90
2018-12-08T23:29:28.005Z,99.90
2018-12-08T23:32:03.954Z,99.90
2018-12-08T23:34:40.270Z,99.90
2018-12-08T23:37:16.505Z,99.90
2018-12-08T23:39:54.738Z,99.90
2018-12-08T23:42:32.835Z,99.90
2018-12-08T23:45:09.650Z,99.90
2018-12-08T23:47:46.124Z,99.90
2018-12-08T23:50:23.339Z,99.90
2018-12-08T23:52:59.934Z,99.90
2018-12-08T23:55:36.577Z,99.90
2018-12-08T23:58:12.933Z,99.90
